createdAt,value
2023-05-17T00:04:10.143Z,3.03
2023-05-17T00:09:13.399Z,2.98
2023-05-17T00:14:16.614Z,2.85
2023-05-17T00:19:21.366Z,2.74
2023-05-17T00:24:24.777Z,2.68
2023-05-17T00:29:28.191Z,2.69
2023-05-17T00:34:32.798Z,2.68
2023-05-17T00:39:36.203Z,2.72
2023-05-17T00:44:40.939Z,2.59
2023-05-17T00:49:46.253Z,2.48
2023-05-17T00:54:49.537Z,2.42
2023-05-17T00:59:55.500Z,2.25
2023-05-17T01:05:01.847Z,2.27
2023-05-17T01:10:06.143Z,2.34
2023-05-17T01:15:15.248Z,2.31
2023-05-17T01:20:23.583Z,2.28
2023-05-17T01:25:42.558Z,2.25
2023-05-17T01:30:47.697Z,2.28
2023-05-17T01:35:50.993Z,2.20
2023-05-17T01:40:58.241Z,2.10
2023-05-17T01:46:09.059Z,2.13
2023-05-17T01:51:13.227Z,2.04
2023-05-17T01:56:20.325Z,1.94
2023-05-17T02:01:25.943Z,1.85
2023-05-17T02:06:29.197Z,1.90
2023-05-17T02:11:32.431Z,1.81
2023-05-17T02:16:37.105Z,1.70
2023-05-17T02:21:40.403Z,1.66
2023-05-17T02:26:43.713Z,1.69
2023-05-17T02:31:48.537Z,1.76
2023-05-17T02:36:53.629Z,1.76
2023-05-17T02:41:57.395Z,1.75
2023-05-17T02:47:02.089Z,1.87
2023-05-17T02:52:06.848Z,1.86
2023-05-17T02:57:10.410Z,2.00
2023-05-17T03:02:15.110Z,2.02
2023-05-17T03:07:18.333Z,2.01
2023-05-17T03:12:21.870Z,1.94
2023-05-17T03:17:26.867Z,1.86
2023-05-17T03:22:30.273Z,1.76
2023-05-17T03:27:35.604Z,1.75
2023-05-17T03:32:41.365Z,2.07
2023-05-17T03:37:44.900Z,2.07
2023-05-17T03:42:48.747Z,2.40
2023-05-17T03:47:53.629Z,2.51
2023-05-17T03:52:57.187Z,2.66
2023-05-17T03:58:02.114Z,2.58
2023-05-17T04:03:07.836Z,2.82
2023-05-17T04:08:11.264Z,2.81
2023-05-17T04:13:15.043Z,3.01
2023-05-17T04:18:20.026Z,2.98
2023-05-17T04:23:23.414Z,3.15
2023-05-17T04:28:27.546Z,3.21
2023-05-17T04:33:33.339Z,3.10
2023-05-17T04:38:37.002Z,3.37
2023-05-17T04:43:42.227Z,3.78
2023-05-17T04:48:53.910Z,3.84
2023-05-17T04:53:58.524Z,4.33
2023-05-17T04:59:02.810Z,4.66
2023-05-17T05:04:08.340Z,4.80
2023-05-17T05:09:16.855Z,5.03
2023-05-17T05:14:21.224Z,5.38
2023-05-17T05:19:26.987Z,5.75
2023-05-17T05:24:31.633Z,6.21
2023-05-17T05:29:34.955Z,6.46
2023-05-17T05:34:39.726Z,6.96
2023-05-17T05:39:43.064Z,7.46
2023-05-17T05:44:46.315Z,8.04
2023-05-17T05:49:52.616Z,8.01
2023-05-17T05:54:55.992Z,8.22
2023-05-17T05:59:59.648Z,8.36
2023-05-17T06:05:05.008Z,8.47
2023-05-17T06:10:09.408Z,8.19
2023-05-17T06:15:13.121Z,8.33
2023-05-17T06:20:17.945Z,8.50
2023-05-17T06:25:21.238Z,8.70
2023-05-17T06:30:25.213Z,8.53
2023-05-17T06:35:35.326Z,9.04
2023-05-17T06:40:47.421Z,9.05
2023-05-17T06:45:50.879Z,9.33
2023-05-17T06:50:57.642Z,9.38
2023-05-17T06:56:00.939Z,9.67
2023-05-17T07:01:04.386Z,9.57
2023-05-17T07:06:09.673Z,9.95
2023-05-17T07:11:13.129Z,9.48
2023-05-17T07:16:16.501Z,10.02
2023-05-17T07:21:21.100Z,10.48
2023-05-17T07:26:24.445Z,10.86
2023-05-17T07:31:27.959Z,10.22
2023-05-17T07:36:32.892Z,10.81
2023-05-17T07:41:36.236Z,11.64
2023-05-17T07:46:39.829Z,10.78
2023-05-17T07:51:44.564Z,11.15
2023-05-17T07:56:48.049Z,10.18
2023-05-17T08:01:51.673Z,9.95
2023-05-17T08:06:56.563Z,10.02
2023-05-17T08:12:00.039Z,9.85
2023-05-17T08:17:03.491Z,9.86
2023-05-17T08:22:08.322Z,10.75
2023-05-17T08:27:12.173Z,11.18
2023-05-17T08:32:15.613Z,11.39
2023-05-17T08:37:20.730Z,13.04
2023-05-17T08:42:25.387Z,12.52
2023-05-17T08:47:33.993Z,12.58
2023-05-17T08:52:38.950Z,11.43
2023-05-17T08:57:42.563Z,11.63
2023-05-17T09:02:46.034Z,11.94
2023-05-17T09:07:51.425Z,11.96
2023-05-17T09:12:54.892Z,12.12
2023-05-17T09:17:58.973Z,11.87
2023-05-17T09:23:05.055Z,12.38
2023-05-17T09:28:08.954Z,11.16
2023-05-17T09:33:14.178Z,11.07
2023-05-17T09:38:27.401Z,11.26
2023-05-17T09:43:31.918Z,11.33
2023-05-17T09:48:39.640Z,12.06
2023-05-17T09:53:44.695Z,11.82
2023-05-17T09:58:50.882Z,13.54
2023-05-17T10:03:54.979Z,13.27
2023-05-17T10:09:00.270Z,12.36
2023-05-17T10:14:11.261Z,12.89
2023-05-17T10:19:15.036Z,13.67
2023-05-17T10:24:21.594Z,12.86
2023-05-17T10:29:26.406Z,13.96
2023-05-17T10:34:30.979Z,12.98
2023-05-17T10:39:38.834Z,13.70
2023-05-17T10:44:42.538Z,13.96
2023-05-17T10:49:48.140Z,14.54
2023-05-17T10:54:54.143Z,13.64
2023-05-17T11:00:00.155Z,13.72
2023-05-17T11:05:03.800Z,13.26
2023-05-17T11:10:13.012Z,13.86
2023-05-17T11:15:17.431Z,13.87
2023-05-17T11:20:38.965Z,14.12
2023-05-17T11:25:43.972Z,14.34
2023-05-17T11:30:51.928Z,14.64
2023-05-17T11:35:56.032Z,14.76
2023-05-17T11:41:26.033Z,13.98
2023-05-17T11:46:30.623Z,13.59
2023-05-17T11:51:34.052Z,14.29
2023-05-17T11:56:43.727Z,14.94
2023-05-17T12:01:48.870Z,14.82
2023-05-17T12:06:53.053Z,15.60
2023-05-17T12:11:59.988Z,15.19
2023-05-17T12:17:05.059Z,14.25
2023-05-17T12:22:12.670Z,12.90
2023-05-17T12:27:26.417Z,13.73
2023-05-17T12:32:29.807Z,14.22
2023-05-17T12:37:33.260Z,14.18
2023-05-17T12:42:40.891Z,14.41
2023-05-17T12:47:44.948Z,13.83
2023-05-17T12:52:49.680Z,13.90
2023-05-17T12:57:54.965Z,14.92
2023-05-17T13:02:58.554Z,15.26
2023-05-17T13:08:23.042Z,15.29
2023-05-17T13:13:27.923Z,14.48
2023-05-17T13:18:35.617Z,14.61
2023-05-17T13:23:44.106Z,14.61
2023-05-17T13:28:49.845Z,14.73
2023-05-17T13:33:53.322Z,15.88
2023-05-17T13:38:57.457Z,14.31
2023-05-17T13:44:02.266Z,15.20
2023-05-17T13:49:07.853Z,15.15
2023-05-17T13:54:11.745Z,15.23
2023-05-17T13:59:16.467Z,16.36
2023-05-17T14:04:20.008Z,15.98
2023-05-17T14:09:23.532Z,15.58
2023-05-17T14:14:29.055Z,13.99
2023-05-17T14:19:32.677Z,15.73
2023-05-17T14:24:36.404Z,15.17
2023-05-17T14:29:41.295Z,14.85
2023-05-17T14:34:44.933Z,15.27
2023-05-17T14:40:05.224Z,13.85
2023-05-17T14:45:11.458Z,14.69
2023-05-17T14:50:14.815Z,14.10
2023-05-17T14:55:18.215Z,14.93
2023-05-17T15:00:23.373Z,14.35
2023-05-17T15:05:26.753Z,14.41
2023-05-17T15:10:30.275Z,13.93
2023-05-17T15:15:35.620Z,13.84
2023-05-17T15:20:39.354Z,14.31
2023-05-17T15:25:42.817Z,13.58
2023-05-17T15:30:47.479Z,14.29
2023-05-17T15:35:52.069Z,15.14
2023-05-17T15:41:04.977Z,15.11
2023-05-17T15:46:09.836Z,15.36
2023-05-17T15:51:13.481Z,13.77
2023-05-17T15:56:17.613Z,15.11
2023-05-17T16:01:22.355Z,15.33
2023-05-17T16:06:25.622Z,14.68
2023-05-17T16:11:29.008Z,13.65
2023-05-17T16:16:33.729Z,13.56
2023-05-17T16:21:37.199Z,13.92
2023-05-17T16:26:40.704Z,14.22
2023-05-17T16:31:45.807Z,14.21
2023-05-17T16:36:50.565Z,14.56
2023-05-17T16:41:55.127Z,13.70
2023-05-17T16:46:59.971Z,14.04
2023-05-17T16:52:03.390Z,14.26
2023-05-17T16:57:08.493Z,13.62
2023-05-17T17:02:13.702Z,13.20
2023-05-17T17:07:17.079Z,13.05
2023-05-17T17:12:25.161Z,13.13
2023-05-17T17:17:30.560Z,13.00
2023-05-17T17:22:34.035Z,12.75
2023-05-17T17:27:37.329Z,13.33
2023-05-17T17:32:42.152Z,13.45
2023-05-17T17:37:45.524Z,13.46
2023-05-17T17:42:48.858Z,12.94
2023-05-17T17:47:53.685Z,12.80
2023-05-17T17:52:57.198Z,12.51
2023-05-17T17:58:00.630Z,12.19
2023-05-17T18:03:05.935Z,12.32
2023-05-17T18:08:09.471Z,12.58
2023-05-17T18:13:12.914Z,12.52
2023-05-17T18:18:17.552Z,12.46
2023-05-17T18:23:21.170Z,12.42
2023-05-17T18:28:33.755Z,12.08
2023-05-17T18:33:46.381Z,11.74
2023-05-17T18:38:50.148Z,11.78
2023-05-17T18:43:53.669Z,11.51
2023-05-17T18:49:01.639Z,11.51
2023-05-17T18:54:05.075Z,11.43
2023-05-17T18:59:08.420Z,11.33
2023-05-17T19:04:14.258Z,11.31
2023-05-17T19:09:17.447Z,11.07
2023-05-17T19:14:21.270Z,10.85
2023-05-17T19:19:26.246Z,10.66
2023-05-17T19:24:29.655Z,10.52
2023-05-17T19:29:33.215Z,10.14
2023-05-17T19:34:37.762Z,9.93
2023-05-17T19:39:41.226Z,9.60
2023-05-17T19:44:44.753Z,8.93
2023-05-17T19:49:50.184Z,9.08
2023-05-17T19:54:53.553Z,8.95
2023-05-17T19:59:57.234Z,8.39
2023-05-17T20:05:05.869Z,8.59
2023-05-17T20:10:12.643Z,8.58
2023-05-17T20:15:15.990Z,8.35
2023-05-17T20:20:21.129Z,7.72
2023-05-17T20:25:24.744Z,8.15
2023-05-17T20:30:28.440Z,7.94
2023-05-17T20:35:33.651Z,7.83
2023-05-17T20:40:37.499Z,7.76
2023-05-17T20:45:43.263Z,7.43
2023-05-17T20:50:49.148Z,7.44
2023-05-17T20:55:53.469Z,7.33
2023-05-17T21:00:56.983Z,7.06
2023-05-17T21:06:02.171Z,6.99
2023-05-17T21:11:05.708Z,6.96
2023-05-17T21:16:09.518Z,6.87
2023-05-17T21:21:14.359Z,6.84
2023-05-17T21:26:17.702Z,6.67
2023-05-17T21:31:21.572Z,6.70
2023-05-17T21:36:26.558Z,6.63
2023-05-17T21:41:29.998Z,6.39
2023-05-17T21:46:33.666Z,6.37
2023-05-17T21:51:38.977Z,6.13
2023-05-17T21:56:42.742Z,5.95
2023-05-17T22:01:46.346Z,5.95
2023-05-17T22:06:51.171Z,5.63
2023-05-17T22:11:58.144Z,5.66
2023-05-17T22:17:01.609Z,5.59
2023-05-17T22:22:06.614Z,5.47
2023-05-17T22:27:10.223Z,5.30
2023-05-17T22:32:13.800Z,5.21
2023-05-17T22:37:22.769Z,5.05
2023-05-17T22:42:26.173Z,4.89
2023-05-17T22:47:29.535Z,4.56
2023-05-17T22:52:34.489Z,4.76
2023-05-17T22:57:37.865Z,4.65
2023-05-17T23:02:41.336Z,4.43
2023-05-17T23:07:47.633Z,4.35
2023-05-17T23:12:52.321Z,4.37
2023-05-17T23:17:59.698Z,4.25
2023-05-17T23:23:04.533Z,4.27
2023-05-17T23:28:08.438Z,4.19
2023-05-17T23:33:12.500Z,4.01
2023-05-17T23:38:17.213Z,4.07
2023-05-17T23:43:20.473Z,4.01
2023-05-17T23:48:25.713Z,3.91
2023-05-17T23:53:30.393Z,3.90
2023-05-17T23:58:33.583Z,3.72
